Time;durP1;ratioP1;P1;durP2;ratioP2;P2;SDS_P1;SDS_P2;PMS_P1;PMS_P2;Temp;Humidity;BMP_temperature;BMP_pressure;BME280_temperature;BME280_humidity;BME280_pressure;Samples;Min_cycle;Max_cycle;Signal;HPM_P1;HPM_P2
2021/03/25 00:05:47;;;;;;;67.20;40.03;;;;;;;4.12;68.31;100030.80;472156;1168;114691;-70
2021/03/25 00:15:50;;;;;;;65.45;41.90;;;;;;;4.05;68.31;100026.67;471979;1167;113985;-68
2021/03/25 00:25:54;;;;;;;68.75;41.95;;;;;;;4.03;68.87;100015.48;472086;1168;115258;-68
2021/03/25 00:35:58;;;;;;;66.07;39.17;;;;;;;3.97;68.66;100013.05;471946;1170;114128;-68
2021/03/25 00:46:02;;;;;;;74.33;44.10;;;;;;;3.94;68.94;100011.42;472006;1168;114786;-66
2021/03/25 00:56:07;;;;;;;65.87;41.43;;;;;;;3.89;68.65;99997.69;471728;1168;114916;-65
2021/03/25 01:06:11;;;;;;;68.50;41.13;;;;;;;3.80;69.16;99993.63;471884;1170;115076;-65
2021/03/25 01:16:17;;;;;;;72.70;42.27;;;;;;;3.76;68.91;99990.27;471719;1170;114292;-65
2021/03/25 01:26:22;;;;;;;68.55;42.25;;;;;;;3.72;69.36;99980.02;472422;1168;114625;-64
2021/03/25 01:36:26;;;;;;;73.43;43.57;;;;;;;3.71;69.08;99971.38;471704;1169;113953;-64
2021/03/25 01:46:33;;;;;;;70.67;43.63;;;;;;;3.69;69.66;99975.75;471819;1169;113838;-65
2021/03/25 01:57:04;;;;;;;54.33;33.50;;;;;;;3.69;69.21;99969.72;471950;1170;113842;-65
2021/03/25 02:07:14;;;;;;;57.65;34.55;;;;;;;3.67;69.16;99964.56;471961;1168;114096;-65
2021/03/25 02:17:24;;;;;;;50.35;31.40;;;;;;;3.71;69.60;99960.13;471819;1169;113863;-65
2021/03/25 02:27:44;;;;;;;54.03;34.00;;;;;;;3.76;69.60;99953.91;472003;1168;114232;-73
2021/03/25 02:37:52;;;;;;;54.10;31.23;;;;;;;3.76;69.16;99953.91;471603;1168;113846;-66
2021/03/25 02:48:01;;;;;;;48.47;30.33;;;;;;;3.73;69.69;99932.36;471945;1170;113832;-67
2021/03/25 02:58:08;;;;;;;50.30;32.67;;;;;;;3.74;69.68;99931.45;472197;1169;113841;-66
2021/03/25 03:08:15;;;;;;;;;;;;;;;3.73;69.48;99920.23;472455;1169;113824;-64
2021/03/25 03:18:25;;;;;;;45.93;27.63;;;;;;;3.72;69.31;99920.27;472005;1167;99767;-66
2021/03/25 03:28:35;;;;;;;52.23;35.20;;;;;;;3.71;69.78;99921.17;471996;1169;114498;-64
2021/03/25 03:38:43;;;;;;;49.97;32.10;;;;;;;3.66;69.40;99920.47;472023;1169;113801;-66
2021/03/25 03:48:51;;;;;;;61.13;36.07;;;;;;;3.61;69.56;99924.04;471837;1169;113724;-65
2021/03/25 03:58:58;;;;;;;53.90;32.80;;;;;;;3.61;69.73;99918.84;471994;1168;115167;-67
2021/03/25 04:09:09;;;;;;;63.80;35.90;;;;;;;3.59;69.77;99925.84;471816;1168;113813;-65
2021/03/25 04:19:19;;;;;;;47.65;29.50;;;;;;;3.56;69.76;99925.08;471582;1168;114284;-67
2021/03/25 04:29:28;;;;;;;47.37;28.40;;;;;;;3.52;70.46;99921.74;472036;1168;114241;-67
2021/03/25 04:39:32;;;;;;;45.57;28.43;;;;;;;3.56;70.35;99931.13;471935;1168;114159;-64
2021/03/25 04:49:41;;;;;;;44.33;28.47;;;;;;;3.56;70.36;99920.74;472718;1168;114434;-65
2021/03/25 04:59:45;;;;;;;44.63;26.40;;;;;;;3.59;70.29;99932.80;472326;1169;114658;-67
2021/03/25 05:09:48;;;;;;;43.73;29.13;;;;;;;3.66;70.25;99949.88;472340;1170;114965;-65
2021/03/25 05:20:03;;;;;;;44.00;28.70;;;;;;;3.69;70.57;99954.97;472514;1168;114007;-66
2021/03/25 05:30:13;;;;;;;53.27;31.07;;;;;;;3.79;70.43;99943.41;472135;1168;114634;-65
2021/03/25 05:40:24;;;;;;;46.10;29.80;;;;;;;3.98;70.29;99947.19;472323;1168;114406;-65
2021/03/25 05:50:37;;;;;;;49.00;30.33;;;;;;;4.17;70.37;99950.09;471609;1170;114327;-65
2021/03/25 06:00:51;;;;;;;51.00;30.60;;;;;;;4.40;69.99;99948.50;471967;1169;114142;-65
2021/03/25 06:11:20;;;;;;;49.83;31.63;;;;;;;4.76;69.25;99962.00;471917;1169;114231;-66
2021/03/25 06:21:37;;;;;;;44.60;29.15;;;;;;;5.17;68.67;99961.45;471730;1168;114507;-65
2021/03/25 06:31:57;;;;;;;51.38;33.15;;;;;;;5.45;68.85;99962.22;471891;1167;114506;-65
2021/03/25 06:42:10;;;;;;;48.73;30.10;;;;;;;5.66;68.17;99968.41;472071;1168;114220;-65
2021/03/25 06:52:24;;;;;;;54.23;33.43;;;;;;;6.07;67.92;99966.88;472217;1168;114257;-65
2021/03/25 07:02:32;;;;;;;45.57;29.80;;;;;;;6.90;67.21;99972.22;472121;1168;114862;-63
2021/03/25 07:12:40;;;;;;;48.05;30.50;;;;;;;9.50;66.42;99966.84;471630;1168;114188;-66
2021/03/25 07:22:59;;;;;;;45.38;31.53;;;;;;;16.73;58.21;99956.58;487969;1168;115684;-65
2021/03/25 07:33:10;;;;;;;44.73;32.97;;;;;;;21.69;52.55;99944.83;472475;1168;114301;-66
2021/03/25 07:43:19;;;;;;;41.93;33.23;;;;;;;25.99;46.57;99934.52;471987;1168;114130;-68
2021/03/25 07:53:39;;;;;;;40.67;34.57;;;;;;;29.56;41.65;99934.78;471977;1168;114109;-67
2021/03/25 08:03:50;;;;;;;41.25;37.00;;;;;;;31.40;36.41;99928.48;472130;1168;114205;-68
2021/03/25 08:13:58;;;;;;;37.78;34.20;;;;;;;32.17;33.45;99934.29;472132;1168;114157;-69
2021/03/25 08:24:30;;;;;;;34.83;31.53;;;;;;;33.01;31.00;99928.91;471733;1168;114530;-61
2021/03/25 08:34:59;;;;;;;36.93;33.47;;;;;;;34.12;29.01;99934.32;471603;1167;115195;-65
2021/03/25 08:45:16;;;;;;;30.53;27.73;;;;;;;34.75;26.87;99924.13;474070;1168;114644;-67
2021/03/25 08:55:26;;;;;;;33.50;30.30;;;;;;;26.92;26.45;99927.47;472293;1168;114744;-68
2021/03/25 09:05:34;;;;;;;34.53;30.50;;;;;;;22.99;29.11;99936.36;471945;1168;114309;-70
2021/03/25 09:15:38;;;;;;;36.93;30.13;;;;;;;20.96;29.87;99922.13;471934;1168;114137;-70
2021/03/25 09:25:41;;;;;;;40.70;31.10;;;;;;;18.36;31.86;99935.50;472226;1168;114196;-62
2021/03/25 09:35:47;;;;;;;34.00;29.25;;;;;;;17.96;32.88;99931.95;472068;1168;115084;-71
2021/03/25 09:45:51;;;;;;;38.40;31.30;;;;;;;16.41;34.25;99930.13;463702;1168;10001135;-68
2021/03/25 09:56:19;;;;;;;41.07;31.03;;;;;;;15.32;34.99;99936.98;471552;1168;115209;-63
2021/03/25 10:06:55;;;;;;;37.80;29.20;;;;;;;15.36;36.32;99921.72;471385;1168;114602;-61
2021/03/25 10:16:59;;;;;;;40.47;31.47;;;;;;;14.92;36.92;99926.86;471661;1168;114136;-63
2021/03/25 10:27:31;;;;;;;37.17;27.60;;;;;;;15.44;36.92;99913.99;471332;1169;114427;-62
2021/03/25 10:37:40;;;;;;;36.90;30.35;;;;;;;14.48;37.15;99902.84;471568;1168;114146;-64
2021/03/25 10:47:51;;;;;;;37.27;27.83;;;;;;;13.68;38.44;99911.27;472035;1168;115808;-64
2021/03/25 10:57:58;;;;;;;33.30;26.90;;;;;;;13.34;38.92;99913.64;471692;1168;114393;-63
2021/03/25 11:08:03;;;;;;;38.37;26.90;;;;;;;13.07;39.28;99890.88;472207;1168;115322;-62
2021/03/25 11:18:19;;;;;;;35.63;24.77;;;;;;;12.56;39.81;99894.36;471939;1168;114560;-61
2021/03/25 11:28:23;;;;;;;35.95;24.68;;;;;;;12.56;40.51;99886.45;471996;1170;114137;-61
2021/03/25 11:38:38;;;;;;;38.33;27.13;;;;;;;12.50;40.62;99871.91;471846;1168;114438;-61
2021/03/25 11:48:42;;;;;;;35.60;26.87;;;;;;;12.17;41.27;99863.55;472014;1170;114961;-61
2021/03/25 11:58:52;;;;;;;28.83;23.07;;;;;;;12.05;41.07;99859.92;471886;1168;114568;-61
2021/03/25 12:09:13;;;;;;;29.20;22.33;;;;;;;12.02;41.29;99849.61;472229;1170;114277;-61
2021/03/25 12:19:17;;;;;;;34.63;22.60;;;;;;;11.97;41.97;99842.93;472171;1170;114873;-62
2021/03/25 12:29:21;;;;;;;31.37;23.97;;;;;;;11.91;42.20;99844.18;472350;1168;114563;-62
2021/03/25 12:39:25;;;;;;;28.90;21.07;;;;;;;12.05;42.47;99838.88;472504;1168;114377;-62
2021/03/25 12:49:29;;;;;;;27.40;23.20;;;;;;;12.25;42.49;99828.81;472539;1168;114222;-60
2021/03/25 12:59:34;;;;;;;31.57;22.80;;;;;;;12.26;43.18;99825.22;472379;1169;114986;-60
2021/03/25 13:09:38;;;;;;;31.80;21.03;;;;;;;12.33;42.97;99820.39;471839;1168;114555;-66
2021/03/25 13:19:41;;;;;;;28.50;20.35;;;;;;;12.35;43.15;99820.30;471929;1168;114911;-67
2021/03/25 13:29:45;;;;;;;31.60;22.90;;;;;;;12.26;42.82;99816.50;472021;1168;114881;-66
2021/03/25 13:39:49;;;;;;;30.70;22.70;;;;;;;12.22;43.31;99807.96;472190;1169;115028;-67
2021/03/25 13:49:53;;;;;;;31.33;22.83;;;;;;;12.30;43.31;99807.44;472198;1169;114378;-67
2021/03/25 13:59:57;;;;;;;32.70;22.53;;;;;;;12.15;43.16;99811.94;472467;1171;114208;-67
2021/03/25 14:10:03;;;;;;;29.73;19.63;;;;;;;12.12;43.72;99806.89;472545;1168;116093;-63
2021/03/25 14:20:12;;;;;;;27.00;19.47;;;;;;;12.16;43.67;99803.95;472570;1170;114376;-66
2021/03/25 14:30:18;;;;;;;28.63;20.90;;;;;;;12.23;43.56;99804.38;472229;1168;115398;-67
2021/03/25 14:40:23;;;;;;;28.40;19.35;;;;;;;12.22;43.81;99792.16;472086;1168;114898;-67
2021/03/25 14:50:28;;;;;;;29.77;20.30;;;;;;;12.20;43.91;99807.23;472174;1170;115182;-67
2021/03/25 15:00:41;;;;;;;28.77;19.73;;;;;;;12.07;44.00;99798.48;472049;1167;114843;-66
2021/03/25 15:21:08;;;;;;;28.73;19.70;;;;;;;12.09;44.30;99792.14;469919;1173;65268;-67
2021/03/25 15:31:12;;;;;;;30.55;21.15;;;;;;;12.02;44.55;99790.89;469223;1174;114609;-66
2021/03/25 15:41:17;;;;;;;33.83;22.87;;;;;;;11.80;44.49;99796.69;469477;1174;113906;-62
2021/03/25 15:51:27;;;;;;;36.27;24.07;;;;;;;11.50;45.03;99806.48;469284;1174;113834;-63
2021/03/25 16:01:31;;;;;;;30.77;21.60;;;;;;;11.12;45.35;99807.97;469073;1174;113909;-65
2021/03/25 16:11:35;;;;;;;30.37;20.70;;;;;;;10.79;46.05;99812.62;481272;1173;114155;-65
2021/03/25 16:21:39;;;;;;;34.70;22.85;;;;;;;10.51;46.38;99819.56;469313;1174;113877;-66
2021/03/25 16:31:42;;;;;;;31.53;22.50;;;;;;;10.14;47.03;99824.31;453645;1174;20002132;-65
2021/03/25 16:41:46;;;;;;;32.83;23.00;;;;;;;9.76;47.57;99827.39;468965;1174;114975;-66
2021/03/25 16:51:50;;;;;;;30.90;21.17;;;;;;;9.31;48.38;99835.13;468912;1174;113794;-66
2021/03/25 17:01:54;;;;;;;38.10;23.05;;;;;;;8.85;49.33;99839.30;468885;1174;114448;-65
2021/03/25 17:11:58;;;;;;;47.70;26.33;;;;;;;8.46;50.31;99851.73;468943;1174;114138;-66
2021/03/25 17:22:02;;;;;;;50.73;30.23;;;;;;;8.02;51.43;99850.41;468938;1174;114126;-66
2021/03/25 17:32:08;;;;;;;56.00;29.90;;;;;;;7.61;52.02;99861.11;468954;1174;113878;-66
2021/03/25 17:42:12;;;;;;;61.20;40.33;;;;;;;7.28;53.14;99873.91;468875;1173;114821;-65
2021/03/25 17:52:16;;;;;;;54.27;34.57;;;;;;;7.26;54.33;99883.58;469236;1174;114366;-66
2021/03/25 18:02:20;;;;;;;55.90;38.17;;;;;;;7.28;54.95;99889.58;468959;1174;113736;-65
2021/03/25 18:12:24;;;;;;;53.37;36.73;;;;;;;7.07;55.38;99888.80;469267;1174;113950;-66
2021/03/25 18:22:28;;;;;;;56.00;36.20;;;;;;;6.86;56.04;99903.63;469408;1174;114108;-65
2021/03/25 18:32:32;;;;;;;51.90;34.75;;;;;;;6.71;56.41;99903.39;469326;1174;113733;-66
2021/03/25 18:42:37;;;;;;;49.03;33.90;;;;;;;6.45;56.86;99918.39;469892;1174;114219;-68
2021/03/25 18:52:41;;;;;;;68.50;38.20;;;;;;;6.22;57.46;99924.54;469270;1174;113690;-65
2021/03/25 19:02:45;;;;;;;148.17;66.83;;;;;;;5.89;57.78;99925.80;469366;1174;113678;-69
2021/03/25 19:12:50;;;;;;;55.65;37.05;;;;;;;5.79;59.31;99934.89;470853;1174;114261;-66
2021/03/25 19:22:54;;;;;;;59.15;36.45;;;;;;;5.57;59.58;99940.09;470452;1174;113918;-65
2021/03/25 19:33:00;;;;;;;70.70;43.75;;;;;;;5.48;60.50;99941.25;469579;1173;113922;-68
2021/03/25 19:43:07;;;;;;;74.15;52.60;;;;;;;5.30;60.71;99948.86;479814;1174;113942;-68
2021/03/25 19:53:11;;;;;;;68.40;44.65;;;;;;;5.24;61.31;99943.86;454296;1173;20001818;-66
2021/03/25 20:03:26;;;;;;;78.00;51.30;;;;;;;5.11;61.47;99953.88;469933;1171;113902;-65
2021/03/25 20:13:31;;;;;;;70.30;45.07;;;;;;;4.87;61.94;99960.78;471608;1170;113559;-67
2021/03/25 20:23:35;;;;;;;83.45;53.60;;;;;;;4.77;62.61;99957.66;470008;1171;114011;-66
2021/03/25 20:33:53;;;;;;;82.00;51.80;;;;;;;4.67;63.01;99953.67;469819;1171;113667;-65
2021/03/25 20:43:57;;;;;;;86.00;56.35;;;;;;;4.49;63.53;99962.03;470015;1170;114157;-65
2021/03/25 20:54:03;;;;;;;83.30;53.85;;;;;;;4.40;63.38;99956.30;470126;1170;114271;-65
2021/03/25 21:04:17;;;;;;;87.10;55.70;;;;;;;4.27;64.33;99967.09;469860;1173;113505;-62
2021/03/25 21:14:21;;;;;;;88.83;52.40;;;;;;;4.29;64.66;99980.89;470147;1171;114064;-62
2021/03/25 21:24:25;;;;;;;75.30;45.03;;;;;;;4.30;65.26;99979.13;470173;1170;114387;-62
2021/03/25 21:34:37;;;;;;;65.90;45.10;;;;;;;4.35;64.96;99977.24;470035;1171;114205;-63
2021/03/25 21:44:41;;;;;;;63.43;42.57;;;;;;;4.37;65.08;99972.84;470568;1171;113830;-64
2021/03/25 21:54:46;;;;;;;69.40;45.27;;;;;;;4.43;65.83;99975.22;469934;1171;114111;-63
2021/03/25 22:05:00;;;;;;;66.43;42.80;;;;;;;4.37;65.80;99971.97;470066;1172;113576;-64
2021/03/25 22:15:07;;;;;;;70.90;46.97;;;;;;;4.38;65.77;99976.27;470193;1171;114014;-65
2021/03/25 22:25:13;;;;;;;79.68;48.10;;;;;;;4.33;65.92;99966.05;470474;1171;114210;-64
2021/03/25 22:35:23;;;;;;;76.83;47.10;;;;;;;4.35;66.00;99969.45;470404;1172;115204;-64
2021/03/25 22:45:33;;;;;;;78.60;48.80;;;;;;;4.29;66.33;99973.09;470106;1171;113635;-63
2021/03/25 22:55:37;;;;;;;70.23;46.27;;;;;;;4.20;66.66;99975.98;470304;1172;114388;-65
2021/03/25 23:05:49;;;;;;;75.80;44.65;;;;;;;4.14;66.79;99979.62;470120;1171;114037;-63
2021/03/25 23:15:53;;;;;;;86.57;56.00;;;;;;;4.14;66.43;99977.02;470147;1171;114203;-65
2021/03/25 23:25:57;;;;;;;94.45;55.05;;;;;;;3.91;66.36;99982.91;469870;1171;114045;-64
2021/03/25 23:36:11;;;;;;;94.47;57.70;;;;;;;3.74;67.15;99984.27;472109;1171;113616;-64
2021/03/25 23:46:15;;;;;;;84.15;53.65;;;;;;;3.60;67.20;99984.67;471103;1171;113980;-66
2021/03/25 23:56:22;;;;;;;84.23;51.80;;;;;;;3.49;67.03;99986.72;470258;1171;113956;-65
